CYMH - Mary's Harbour Airport

Pirep is a free, collaborative database of all public and private airports located within the United States. All pilots are welcome to contribute, edit, and improve any airport they have local knowledge about, no registration required.
Are you familiar with this airport? Help out other pilots by adding your local knowledge.
Uploaded photos will be licensed under a CC BY-SA 4.0 license. Please only upload photos you have the rights to use.
Tags
Public
Undocu­mented
METAR / TAF
Webcam
Edit Tags
Food
Camping
Lodging
Car Rental
Bicycles
Swimming
Golfing
Fishing
Hot Springs
Museum
Flying Clubs
Airpark
Upcoming Events
No upcoming events. Is anything happening here soon?
*
*
*

Where exactly on/near the airport is this event taking place?

Is there a webpage with more information for this event?

Who should be contacted for more information?

What is this event all about?

Repeat every
Description
Transient Parking
Fuel Location
Landing & Tie-down Fees
Crew Car Availability
Flying Clubs
WiFi Access
Airport Statistics
Location: Mary's Harbour, Newfoundland and Labrador
Elevation: 38ft
Runway 11/29: 2,500ft
Warning: This airport was imported from a non-authoritative source. It's public/private status may not be accurate.
Access: Open to the public
Current Weather — VFR
  • Weather data is strictly informational and not for flight planning purposes.
  • METAR
    2024-04-24 09:30:00 NDT
    Ceiling Wind Temperature Dewpoint Weather Visbility
    Sky clear 200° @ 7kt, gusts 16kt 46°F 23°F N/A 9SM
    Raw: CYMH 241200Z AUTO 20007G16KT 170V230 9SM CLR 08/M05 A3010 RMK SLP196
  • TAF
    2024-04-24 06:30:00 NDT – 2024-04-24 07:30:00 NDT
    Ceiling Wind Weather Visbility
    Sky clear 220° @ 10kt, gusts 20kt N/A 6SM
    Clouds: @ ft
    Raw: TAF CYMH 240840Z 2409/2421 22010G20KT P6SM SKC BECMG 2410/2412 20015G25KT RMK FCST BASED ON AUTO OBS. NXT FCST BY 241400Z
  • TAF
    2024-04-24 07:30:00 NDT – 2024-04-24 18:30:00 NDT
    Ceiling Wind Weather Visbility
    Sky clear 200° @ 15kt, gusts 25kt N/A 6SM
    Clouds: @ ft
    Raw: TAF CYMH 240840Z 2409/2421 22010G20KT P6SM SKC BECMG 2410/2412 20015G25KT RMK FCST BASED ON AUTO OBS. NXT FCST BY 241400Z
Click/tap to add an annotation marker to the map
Direct links to live image URLs will be displayed inline on this page. URLs to separate webpages will be linked to.
URL:
Direct links to live image URLs will be displayed inline on this page. URLs to separate webpages will be linked to.
URL:
Comments
Leave a comment What was your experience like at this airport?